Terminal Aerodrome Forecast
Issued by NWS

Home | Current Version | Previous Version | Graphics & Text | Print | Product List | Glossary On
Versions: 1 2 3 4 5 6 7 8 9 10 11 12 13 14 15 16 17 18 19 20
311
FTUS42 KMHX 231721
TAFISO
TAF
KISO 231721Z 2318/2418 05011KT P6SM VCSH OVC012
     FM240100 06011KT 5SM SHRA OVC020
     FM240200 06010KT 5SM SHRA OVC010
     FM241600 08008KT 4SM SHRA OVC025
      AMD LTD TO CLD VIS AND WIND=

USA.gov is the U.S. government's official web portal to all federal, state and local government web resources and services.